sensor_id;sensor_type;location;lat;lon;timestamp;pressure;altitude;pressure_sealevel;temperature;humidity
77587;BME280;66744;49.716;17.158;2023-02-02T00:02:48;98523.63;;;3.12;76.38
77587;BME280;66744;49.716;17.158;2023-02-02T00:05:52;98526.06;;;2.97;77.37
77587;BME280;66744;49.716;17.158;2023-02-02T00:09:00;98520.34;;;3.03;77.22
77587;BME280;66744;49.716;17.158;2023-02-02T00:12:01;98519.09;;;2.96;76.85
77587;BME280;66744;49.716;17.158;2023-02-02T00:15:02;98510.50;;;2.91;77.48
77587;BME280;66744;49.716;17.158;2023-02-02T00:18:04;98510.44;;;2.87;78.00
77587;BME280;66744;49.716;17.158;2023-02-02T00:21:05;98508.81;;;2.83;78.09
77587;BME280;66744;49.716;17.158;2023-02-02T00:24:07;98516.19;;;2.86;77.26
77587;BME280;66744;49.716;17.158;2023-02-02T00:27:08;98521.16;;;2.84;77.98
77587;BME280;66744;49.716;17.158;2023-02-02T00:30:10;98524.72;;;2.88;77.97
77587;BME280;66744;49.716;17.158;2023-02-02T00:33:12;98523.94;;;2.87;77.42
77587;BME280;66744;49.716;17.158;2023-02-02T00:36:14;98515.16;;;2.94;77.44
77587;BME280;66744;49.716;17.158;2023-02-02T00:39:19;98530.97;;;2.92;77.48
77587;BME280;66744;49.716;17.158;2023-02-02T00:42:21;98539.72;;;3.05;76.88
77587;BME280;66744;49.716;17.158;2023-02-02T00:45:22;98517.50;;;3.15;76.58
77587;BME280;66744;49.716;17.158;2023-02-02T00:48:25;98531.31;;;3.10;76.27
77587;BME280;66744;49.716;17.158;2023-02-02T00:51:26;98522.09;;;3.14;76.49
77587;BME280;66744;49.716;17.158;2023-02-02T00:54:27;98512.09;;;3.15;76.04
77587;BME280;66744;49.716;17.158;2023-02-02T00:57:28;98533.28;;;3.13;75.69
77587;BME280;66744;49.716;17.158;2023-02-02T01:00:29;98545.25;;;3.12;75.68
77587;BME280;66744;49.716;17.158;2023-02-02T01:03:31;98541.34;;;3.09;75.71
77587;BME280;66744;49.716;17.158;2023-02-02T01:06:32;98545.13;;;3.05;75.46
77587;BME280;66744;49.716;17.158;2023-02-02T01:09:33;98554.56;;;2.95;76.27
77587;BME280;66744;49.716;17.158;2023-02-02T01:12:34;98564.09;;;2.89;76.06
77587;BME280;66744;49.716;17.158;2023-02-02T01:15:36;98575.78;;;2.93;76.04
77587;BME280;66744;49.716;17.158;2023-02-02T01:18:37;98563.56;;;2.99;75.85
77587;BME280;66744;49.716;17.158;2023-02-02T01:21:38;98561.34;;;3.05;75.52
77587;BME280;66744;49.716;17.158;2023-02-02T01:24:39;98565.78;;;3.16;75.23
77587;BME280;66744;49.716;17.158;2023-02-02T01:27:41;98572.34;;;3.15;75.35
77587;BME280;66744;49.716;17.158;2023-02-02T01:30:42;98564.72;;;3.21;75.35
77587;BME280;66744;49.716;17.158;2023-02-02T01:33:43;98572.84;;;3.21;75.07
77587;BME280;66744;49.716;17.158;2023-02-02T01:36:45;98588.97;;;3.17;75.52
77587;BME280;66744;49.716;17.158;2023-02-02T01:39:47;98587.91;;;3.22;75.37
77587;BME280;66744;49.716;17.158;2023-02-02T01:42:48;98585.75;;;3.31;74.81
77587;BME280;66744;49.716;17.158;2023-02-02T01:45:50;98581.13;;;3.31;74.29
77587;BME280;66744;49.716;17.158;2023-02-02T01:51:59;98589.03;;;3.40;74.80
77587;BME280;66744;49.716;17.158;2023-02-02T01:55:05;98600.38;;;3.49;74.79
77587;BME280;66744;49.716;17.158;2023-02-02T01:58:23;98602.25;;;3.45;74.24
77587;BME280;66744;49.716;17.158;2023-02-02T02:01:26;98607.19;;;3.62;74.25
77587;BME280;66744;49.716;17.158;2023-02-02T02:04:29;98614.75;;;3.53;73.99
77587;BME280;66744;49.716;17.158;2023-02-02T02:07:31;98611.63;;;3.51;74.19
77587;BME280;66744;49.716;17.158;2023-02-02T02:10:32;98618.66;;;3.55;74.55
77587;BME280;66744;49.716;17.158;2023-02-02T02:13:36;98627.56;;;3.56;74.45
77587;BME280;66744;49.716;17.158;2023-02-02T02:35:08;98612.75;;;3.50;74.24
77587;BME280;66744;49.716;17.158;2023-02-02T02:41:28;98619.25;;;3.45;74.58
77587;BME280;66744;49.716;17.158;2023-02-02T02:44:33;98623.81;;;3.41;75.11
77587;BME280;66744;49.716;17.158;2023-02-02T02:47:37;98625.78;;;3.44;74.62
77587;BME280;66744;49.716;17.158;2023-02-02T02:50:39;98611.94;;;3.46;74.32
77587;BME280;66744;49.716;17.158;2023-02-02T02:53:41;98629.22;;;3.41;74.88
77587;BME280;66744;49.716;17.158;2023-02-02T03:00:11;98617.38;;;3.49;74.04
77587;BME280;66744;49.716;17.158;2023-02-02T03:03:23;98630.78;;;3.42;74.67
77587;BME280;66744;49.716;17.158;2023-02-02T03:09:36;98621.25;;;3.48;74.63
77587;BME280;66744;49.716;17.158;2023-02-02T03:12:50;98625.72;;;3.41;74.92
77587;BME280;66744;49.716;17.158;2023-02-02T03:15:51;98608.28;;;3.38;75.41
77587;BME280;66744;49.716;17.158;2023-02-02T03:18:53;98614.91;;;3.41;74.94
77587;BME280;66744;49.716;17.158;2023-02-02T03:21:55;98613.28;;;3.36;75.29
77587;BME280;66744;49.716;17.158;2023-02-02T03:24:57;98612.34;;;3.48;74.28
77587;BME280;66744;49.716;17.158;2023-02-02T03:27:59;98602.06;;;3.34;74.99
77587;BME280;66744;49.716;17.158;2023-02-02T03:31:01;98594.84;;;3.42;73.94
77587;BME280;66744;49.716;17.158;2023-02-02T03:34:02;98597.97;;;3.44;74.19
77587;BME280;66744;49.716;17.158;2023-02-02T03:37:03;98613.78;;;3.42;74.21
77587;BME280;66744;49.716;17.158;2023-02-02T03:40:05;98613.13;;;3.48;73.50
77587;BME280;66744;49.716;17.158;2023-02-02T03:43:07;98617.75;;;3.48;73.78
77587;BME280;66744;49.716;17.158;2023-02-02T03:46:08;98618.47;;;3.45;74.03
77587;BME280;66744;49.716;17.158;2023-02-02T03:49:09;98615.63;;;3.38;74.18
77587;BME280;66744;49.716;17.158;2023-02-02T03:52:10;98624.66;;;3.45;73.36
77587;BME280;66744;49.716;17.158;2023-02-02T03:55:11;98633.63;;;3.49;73.53
77587;BME280;66744;49.716;17.158;2023-02-02T03:58:13;98634.31;;;3.46;73.44
77587;BME280;66744;49.716;17.158;2023-02-02T04:01:14;98628.28;;;3.53;72.98
77587;BME280;66744;49.716;17.158;2023-02-02T04:04:15;98638.00;;;3.57;72.25
77587;BME280;66744;49.716;17.158;2023-02-02T04:07:17;98634.41;;;3.50;72.99
77587;BME280;66744;49.716;17.158;2023-02-02T04:10:18;98639.41;;;3.48;73.24
77587;BME280;66744;49.716;17.158;2023-02-02T04:13:20;98640.66;;;3.54;72.84
77587;BME280;66744;49.716;17.158;2023-02-02T04:16:21;98646.41;;;3.52;72.76
77587;BME280;66744;49.716;17.158;2023-02-02T04:19:22;98646.34;;;3.49;72.92
77587;BME280;66744;49.716;17.158;2023-02-02T04:22:24;98646.78;;;3.51;72.62
77587;BME280;66744;49.716;17.158;2023-02-02T04:25:25;98649.13;;;3.52;72.59
77587;BME280;66744;49.716;17.158;2023-02-02T04:28:26;98651.53;;;3.57;72.48
77587;BME280;66744;49.716;17.158;2023-02-02T04:31:28;98635.06;;;3.66;71.69
77587;BME280;66744;49.716;17.158;2023-02-02T04:34:29;98641.56;;;3.62;71.48
77587;BME280;66744;49.716;17.158;2023-02-02T04:37:31;98639.66;;;3.62;71.67
77587;BME280;66744;49.716;17.158;2023-02-02T04:40:33;98638.56;;;3.67;71.22
77587;BME280;66744;49.716;17.158;2023-02-02T04:43:35;98640.47;;;3.66;71.69
77587;BME280;66744;49.716;17.158;2023-02-02T04:46:36;98631.84;;;3.57;71.64
77587;BME280;66744;49.716;17.158;2023-02-02T04:49:38;98631.78;;;3.53;71.39
77587;BME280;66744;49.716;17.158;2023-02-02T04:52:39;98631.78;;;3.53;72.19
77587;BME280;66744;49.716;17.158;2023-02-02T04:55:40;98633.28;;;3.51;72.76
77587;BME280;66744;49.716;17.158;2023-02-02T04:58:42;98632.41;;;3.47;72.74
77587;BME280;66744;49.716;17.158;2023-02-02T05:01:44;98627.00;;;3.47;71.46
77587;BME280;66744;49.716;17.158;2023-02-02T05:04:45;98634.97;;;3.59;71.29
77587;BME280;66744;49.716;17.158;2023-02-02T05:07:46;98647.06;;;3.65;70.93
77587;BME280;66744;49.716;17.158;2023-02-02T05:10:48;98646.63;;;3.63;71.28
77587;BME280;66744;49.716;17.158;2023-02-02T05:13:52;98632.84;;;3.72;70.46
77587;BME280;66744;49.716;17.158;2023-02-02T05:16:53;98644.56;;;3.79;70.11
77587;BME280;66744;49.716;17.158;2023-02-02T05:19:54;98639.28;;;3.86;70.21
77587;BME280;66744;49.716;17.158;2023-02-02T05:22:55;98646.44;;;3.98;68.91
77587;BME280;66744;49.716;17.158;2023-02-02T05:25:57;98642.72;;;4.06;68.65
77587;BME280;66744;49.716;17.158;2023-02-02T05:28:58;98644.88;;;4.20;68.56
77587;BME280;66744;49.716;17.158;2023-02-02T05:31:59;98650.38;;;4.27;68.80
77587;BME280;66744;49.716;17.158;2023-02-02T05:35:00;98655.78;;;4.27;68.02
77587;BME280;66744;49.716;17.158;2023-02-02T05:38:02;98645.94;;;4.15;67.10
77587;BME280;66744;49.716;17.158;2023-02-02T05:41:03;98646.94;;;4.03;67.63
77587;BME280;66744;49.716;17.158;2023-02-02T05:44:05;98645.06;;;4.07;68.54
77587;BME280;66744;49.716;17.158;2023-02-02T05:47:06;98645.94;;;4.15;68.06
77587;BME280;66744;49.716;17.158;2023-02-02T05:50:07;98651.31;;;4.11;67.48
77587;BME280;66744;49.716;17.158;2023-02-02T05:53:11;98646.69;;;4.12;67.13
77587;BME280;66744;49.716;17.158;2023-02-02T05:56:13;98644.38;;;4.14;67.16
77587;BME280;66744;49.716;17.158;2023-02-02T05:59:16;98649.81;;;4.14;67.57
77587;BME280;66744;49.716;17.158;2023-02-02T06:02:17;98646.16;;;4.29;67.30
77587;BME280;66744;49.716;17.158;2023-02-02T06:05:18;98650.63;;;4.18;66.97
77587;BME280;66744;49.716;17.158;2023-02-02T06:08:20;98646.94;;;4.03;67.61
77587;BME280;66744;49.716;17.158;2023-02-02T06:11:21;98657.38;;;4.05;66.92
77587;BME280;66744;49.716;17.158;2023-02-02T06:14:22;98651.50;;;3.99;68.49
77587;BME280;66744;49.716;17.158;2023-02-02T06:17:23;98658.19;;;4.05;67.63
77587;BME280;66744;49.716;17.158;2023-02-02T06:20:25;98658.09;;;4.02;67.69
77587;BME280;66744;49.716;17.158;2023-02-02T06:23:26;98650.28;;;3.97;67.94
77587;BME280;66744;49.716;17.158;2023-02-02T06:26:27;98658.47;;;4.00;67.81
77587;BME280;66744;49.716;17.158;2023-02-02T06:29:29;98657.03;;;4.06;67.41
77587;BME280;66744;49.716;17.158;2023-02-02T06:32:30;98659.38;;;4.08;67.21
77587;BME280;66744;49.716;17.158;2023-02-02T06:35:32;98658.19;;;4.05;66.87
77587;BME280;66744;49.716;17.158;2023-02-02T06:38:33;98651.50;;;3.99;67.38
77587;BME280;66744;49.716;17.158;2023-02-02T06:41:35;98651.44;;;3.96;68.01
77587;BME280;66744;49.716;17.158;2023-02-02T06:44:36;98651.00;;;3.94;67.56
77587;BME280;66744;49.716;17.158;2023-02-02T06:47:37;98653.84;;;4.01;67.29
77587;BME280;66744;49.716;17.158;2023-02-02T06:50:39;98667.75;;;3.99;66.94
77587;BME280;66744;49.716;17.158;2023-02-02T06:53:42;98659.63;;;3.99;67.07
77587;BME280;66744;49.716;17.158;2023-02-02T06:56:44;98642.25;;;4.00;66.17
77587;BME280;66744;49.716;17.158;2023-02-02T06:59:45;98668.88;;;3.98;67.39
77587;BME280;66744;49.716;17.158;2023-02-02T07:02:47;98664.22;;;3.95;67.00
77587;BME280;66744;49.716;17.158;2023-02-02T07:05:48;98668.47;;;3.96;67.12
77587;BME280;66744;49.716;17.158;2023-02-02T07:08:50;98667.31;;;3.97;66.63
77587;BME280;66744;49.716;17.158;2023-02-02T07:11:51;98658.19;;;4.05;66.29
77587;BME280;66744;49.716;17.158;2023-02-02T07:14:53;98657.03;;;4.06;66.33
77587;BME280;66744;49.716;17.158;2023-02-02T07:17:54;98652.75;;;4.05;66.26
77587;BME280;66744;49.716;17.158;2023-02-02T07:20:58;98663.22;;;4.07;66.66
77587;BME280;66744;49.716;17.158;2023-02-02T07:24:01;98664.38;;;4.06;67.25
77587;BME280;66744;49.716;17.158;2023-02-02T07:27:06;98650.53;;;4.11;66.98
77587;BME280;66744;49.716;17.158;2023-02-02T07:30:08;98667.13;;;4.09;67.69
77587;BME280;66744;49.716;17.158;2023-02-02T07:33:09;98660.56;;;4.10;67.72
77587;BME280;66744;49.716;17.158;2023-02-02T07:36:10;98672.28;;;4.18;66.85
77587;BME280;66744;49.716;17.158;2023-02-02T07:39:12;98672.25;;;4.14;67.30
77587;BME280;66744;49.716;17.158;2023-02-02T07:42:13;98673.50;;;4.21;66.80
77587;BME280;66744;49.716;17.158;2023-02-02T07:45:15;98682.41;;;4.21;66.45
77587;BME280;66744;49.716;17.158;2023-02-02T07:48:17;98697.88;;;4.21;67.49
77587;BME280;66744;49.716;17.158;2023-02-02T07:51:18;98697.88;;;4.21;66.83
77587;BME280;66744;49.716;17.158;2023-02-02T07:54:20;98708.84;;;4.28;67.46
77587;BME280;66744;49.716;17.158;2023-02-02T07:57:21;98712.09;;;4.37;66.81
77587;BME280;66744;49.716;17.158;2023-02-02T08:00:22;98710.44;;;4.32;67.11
77587;BME280;66744;49.716;17.158;2023-02-02T08:03:24;98706.94;;;4.32;67.70
77587;BME280;66744;49.716;17.158;2023-02-02T08:06:26;98727.72;;;4.24;67.99
77587;BME280;66744;49.716;17.158;2023-02-02T08:09:28;98721.28;;;4.32;68.29
77587;BME280;66744;49.716;17.158;2023-02-02T08:12:29;98722.91;;;4.37;68.37
77587;BME280;66744;49.716;17.158;2023-02-02T08:15:30;98729.94;;;4.41;67.81
77587;BME280;66744;49.716;17.158;2023-02-02T08:18:32;98730.59;;;4.35;68.23
77587;BME280;66744;49.716;17.158;2023-02-02T08:21:33;98736.00;;;4.31;69.15
77587;BME280;66744;49.716;17.158;2023-02-02T08:24:35;98749.16;;;4.33;68.86
77587;BME280;66744;49.716;17.158;2023-02-02T08:27:40;98751.22;;;4.39;69.00
77587;BME280;66744;49.716;17.158;2023-02-02T08:30:41;98755.13;;;4.42;69.55
77587;BME280;66744;49.716;17.158;2023-02-02T08:33:43;98768.66;;;4.42;68.57
77587;BME280;66744;49.716;17.158;2023-02-02T08:36:44;98758.97;;;4.41;68.40
77587;BME280;66744;49.716;17.158;2023-02-02T08:39:45;98751.41;;;4.53;67.97
77587;BME280;66744;49.716;17.158;2023-02-02T08:42:52;98756.06;;;4.53;68.55
77587;BME280;66744;49.716;17.158;2023-02-02T08:45:53;98764.13;;;4.49;69.52
77587;BME280;66744;49.716;17.158;2023-02-02T08:48:55;98758.53;;;4.61;68.46
77587;BME280;66744;49.716;17.158;2023-02-02T08:51:56;98754.72;;;4.66;67.83
77587;BME280;66744;49.716;17.158;2023-02-02T08:54:57;98762.00;;;4.62;67.81
77587;BME280;66744;49.716;17.158;2023-02-02T08:57:58;98766.28;;;4.63;67.34
77587;BME280;66744;49.716;17.158;2023-02-02T09:01:06;98771.66;;;4.59;68.27
77587;BME280;66744;49.716;17.158;2023-02-02T09:04:12;98766.59;;;4.58;67.98
77587;BME280;66744;49.716;17.158;2023-02-02T09:07:15;98763.28;;;4.68;66.66
77587;BME280;66744;49.716;17.158;2023-02-02T09:10:16;98772.81;;;4.58;67.73
77587;BME280;66744;49.716;17.158;2023-02-02T09:13:18;98772.38;;;4.56;67.66
77587;BME280;66744;49.716;17.158;2023-02-02T09:16:20;98774.72;;;4.58;67.48
77587;BME280;66744;49.716;17.158;2023-02-02T09:19:21;98783.66;;;4.58;67.73
77587;BME280;66744;49.716;17.158;2023-02-02T09:22:22;98781.69;;;4.59;68.16
77587;BME280;66744;49.716;17.158;2023-02-02T09:25:24;98777.50;;;4.61;67.71
77587;BME280;66744;49.716;17.158;2023-02-02T09:28:27;98779.47;;;4.64;67.88
77587;BME280;66744;49.716;17.158;2023-02-02T09:31:31;98785.09;;;4.75;67.28
77587;BME280;66744;49.716;17.158;2023-02-02T09:34:33;98782.00;;;4.76;67.59
77587;BME280;66744;49.716;17.158;2023-02-02T09:37:35;98780.53;;;4.83;67.85
77587;BME280;66744;49.716;17.158;2023-02-02T09:40:36;98784.13;;;4.90;67.93
77587;BME280;66744;49.716;17.158;2023-02-02T09:43:42;98786.75;;;5.09;66.49
77587;BME280;66744;49.716;17.158;2023-02-02T09:53:13;98791.03;;;5.70;64.61
77587;BME280;66744;49.716;17.158;2023-02-02T09:56:26;98793.78;;;6.43;63.61
77587;BME280;66744;49.716;17.158;2023-02-02T09:59:36;98789.88;;;6.41;62.10
77587;BME280;66744;49.716;17.158;2023-02-02T10:02:41;98798.06;;;6.04;62.99
77587;BME280;66744;49.716;17.158;2023-02-02T10:05:56;98798.25;;;5.85;64.70
77587;BME280;66744;49.716;17.158;2023-02-02T10:12:43;98798.38;;;5.66;64.80
77587;BME280;66744;49.716;17.158;2023-02-02T10:15:53;98809.00;;;5.48;65.29
77587;BME280;66744;49.716;17.158;2023-02-02T10:19:07;98795.41;;;5.48;65.04
77587;BME280;66744;49.716;17.158;2023-02-02T10:22:16;98795.94;;;5.57;64.37
77587;BME280;66744;49.716;17.158;2023-02-02T10:25:21;98809.97;;;5.63;65.40
77587;BME280;66744;49.716;17.158;2023-02-02T10:28:41;98799.56;;;6.02;63.92
77587;BME280;66744;49.716;17.158;2023-02-02T10:41:29;98802.31;;;8.90;56.35
77587;BME280;66744;49.716;17.158;2023-02-02T10:44:44;98804.19;;;9.49;53.46
77587;BME280;66744;49.716;17.158;2023-02-02T10:47:49;98803.47;;;8.71;54.47
77587;BME280;66744;49.716;17.158;2023-02-02T10:50:54;98811.84;;;9.86;53.43
77587;BME280;66744;49.716;17.158;2023-02-02T10:53:59;98805.72;;;9.54;53.24
77587;BME280;66744;49.716;17.158;2023-02-02T10:57:07;98809.09;;;9.90;52.06
77587;BME280;66744;49.716;17.158;2023-02-02T11:03:33;98819.78;;;9.53;51.88
77587;BME280;66744;49.716;17.158;2023-02-02T11:06:35;98811.88;;;9.76;51.98
77587;BME280;66744;49.716;17.158;2023-02-02T11:09:51;98799.09;;;10.38;49.81
77587;BME280;66744;49.716;17.158;2023-02-02T11:12:54;98801.03;;;10.45;50.03
77587;BME280;66744;49.716;17.158;2023-02-02T11:22:30;98803.22;;;9.98;50.14
77587;BME280;66744;49.716;17.158;2023-02-02T11:25:36;98805.53;;;10.69;49.03
77587;BME280;66744;49.716;17.158;2023-02-02T11:28:37;98800.56;;;10.57;48.09
77587;BME280;66744;49.716;17.158;2023-02-02T11:31:40;98806.69;;;10.72;46.86
77587;BME280;66744;49.716;17.158;2023-02-02T11:34:43;98807.97;;;11.08;45.89
77587;BME280;66744;49.716;17.158;2023-02-02T11:41:09;98792.81;;;10.48;46.20
77587;BME280;66744;49.716;17.158;2023-02-02T11:44:24;98810.09;;;10.86;47.22
77587;BME280;66744;49.716;17.158;2023-02-02T11:47:30;98804.75;;;11.54;44.98
77587;BME280;66744;49.716;17.158;2023-02-02T11:50:33;98822.75;;;10.70;45.82
77587;BME280;66744;49.716;17.158;2023-02-02T11:53:46;98822.13;;;11.40;45.05
77587;BME280;66744;49.716;17.158;2023-02-02T11:56:50;98811.00;;;10.07;47.98
77587;BME280;66744;49.716;17.158;2023-02-02T12:00:16;98824.34;;;9.87;49.99
77587;BME280;66744;49.716;17.158;2023-02-02T12:06:37;98828.78;;;8.44;52.00
77587;BME280;66744;49.716;17.158;2023-02-02T12:09:39;98835.22;;;7.93;55.33
77587;BME280;66744;49.716;17.158;2023-02-02T12:13:06;98831.50;;;7.50;54.60
77587;BME280;66744;49.716;17.158;2023-02-02T12:23:19;98832.22;;;7.40;56.67
77587;BME280;66744;49.716;17.158;2023-02-02T12:26:26;98835.97;;;6.67;58.65
77587;BME280;66744;49.716;17.158;2023-02-02T12:30:02;98835.97;;;7.18;59.50
77587;BME280;66744;49.716;17.158;2023-02-02T13:06:52;98855.56;;;8.17;57.20
77587;BME280;66744;49.716;17.158;2023-02-02T13:10:17;98860.78;;;9.24;54.42
77587;BME280;66744;49.716;17.158;2023-02-02T13:13:29;98854.53;;;9.41;52.56
77587;BME280;66744;49.716;17.158;2023-02-02T13:16:34;98858.53;;;10.34;50.27
77587;BME280;66744;49.716;17.158;2023-02-02T13:19:40;98863.09;;;10.58;49.16
77587;BME280;66744;49.716;17.158;2023-02-02T13:22:44;98868.00;;;10.12;50.18
77587;BME280;66744;49.716;17.158;2023-02-02T13:26:03;98876.34;;;8.71;53.93
77587;BME280;66744;49.716;17.158;2023-02-02T13:35:27;98872.53;;;10.47;50.91
77587;BME280;66744;49.716;17.158;2023-02-02T13:38:31;98880.13;;;12.13;44.96
77587;BME280;66744;49.716;17.158;2023-02-02T13:41:35;98872.09;;;12.83;43.51
77587;BME280;66744;49.716;17.158;2023-02-02T13:44:39;98885.47;;;13.34;42.63
77587;BME280;66744;49.716;17.158;2023-02-02T13:47:48;98884.97;;;12.89;41.89
77587;BME280;66744;49.716;17.158;2023-02-02T14:00:37;98903.75;;;12.34;43.38
77587;BME280;66744;49.716;17.158;2023-02-02T14:03:41;98915.81;;;12.10;44.53
77587;BME280;66744;49.716;17.158;2023-02-02T14:06:58;98905.88;;;11.45;45.15
77587;BME280;66744;49.716;17.158;2023-02-02T14:09:59;98924.50;;;10.54;47.58
77587;BME280;66744;49.716;17.158;2023-02-02T14:22:46;98959.66;;;7.24;58.16
77587;BME280;66744;49.716;17.158;2023-02-02T14:26:08;98962.06;;;6.92;59.97
77587;BME280;66744;49.716;17.158;2023-02-02T14:32:31;98958.16;;;6.53;60.81
77587;BME280;66744;49.716;17.158;2023-02-02T14:38:56;98959.25;;;6.15;63.50
77587;BME280;66744;49.716;17.158;2023-02-02T14:49:22;98992.56;;;5.60;66.41
77587;BME280;66744;49.716;17.158;2023-02-02T14:52:25;98992.91;;;5.58;66.63
77587;BME280;66744;49.716;17.158;2023-02-02T14:55:27;98998.00;;;5.60;66.81
77587;BME280;66744;49.716;17.158;2023-02-02T14:58:32;99017.31;;;5.55;67.05
77587;BME280;66744;49.716;17.158;2023-02-02T15:01:36;99013.84;;;5.58;68.30
77587;BME280;66744;49.716;17.158;2023-02-02T15:04:37;99019.00;;;5.63;69.00
77587;BME280;66744;49.716;17.158;2023-02-02T15:07:50;99021.88;;;5.51;69.01
77587;BME280;66744;49.716;17.158;2023-02-02T15:11:02;99033.94;;;5.30;68.91
77587;BME280;66744;49.716;17.158;2023-02-02T15:14:28;99024.78;;;5.16;69.52
77587;BME280;66744;49.716;17.158;2023-02-02T15:20:48;99030.47;;;4.88;70.03
77587;BME280;66744;49.716;17.158;2023-02-02T15:23:49;99044.06;;;4.72;70.30
77587;BME280;66744;49.716;17.158;2023-02-02T15:26:51;99047.88;;;4.68;70.48
77587;BME280;66744;49.716;17.158;2023-02-02T15:29:58;99046.78;;;4.53;71.14
77587;BME280;66744;49.716;17.158;2023-02-02T15:33:12;99056.28;;;4.44;70.83
77587;BME280;66744;49.716;17.158;2023-02-02T15:36:29;99048.22;;;4.28;71.68
77587;BME280;66744;49.716;17.158;2023-02-02T15:39:41;99067.28;;;4.16;72.63
77587;BME280;66744;49.716;17.158;2023-02-02T15:42:49;99064.66;;;4.04;73.76
77587;BME280;66744;49.716;17.158;2023-02-02T15:45:54;99075.19;;;3.90;74.27
77587;BME280;66744;49.716;17.158;2023-02-02T15:52:25;99081.03;;;3.76;74.58
77587;BME280;66744;49.716;17.158;2023-02-02T15:55:32;99097.69;;;3.63;75.33
77587;BME280;66744;49.716;17.158;2023-02-02T15:58:37;99102.25;;;3.58;75.83
77587;BME280;66744;49.716;17.158;2023-02-02T16:01:48;99104.00;;;3.51;76.42
77587;BME280;66744;49.716;17.158;2023-02-02T16:04:51;99109.03;;;3.52;76.12
77587;BME280;66744;49.716;17.158;2023-02-02T16:07:52;99112.09;;;3.51;76.04
77587;BME280;66744;49.716;17.158;2023-02-02T16:11:14;99112.63;;;3.56;75.97
77587;BME280;66744;49.716;17.158;2023-02-02T16:14:16;99121.34;;;3.50;75.70
77587;BME280;66744;49.716;17.158;2023-02-02T16:17:19;99138.00;;;3.52;74.84
77587;BME280;66744;49.716;17.158;2023-02-02T16:20:21;99135.69;;;3.66;73.57
77587;BME280;66744;49.716;17.158;2023-02-02T16:23:29;99155.00;;;3.80;72.99
77587;BME280;66744;49.716;17.158;2023-02-02T16:26:32;99157.88;;;3.87;71.88
77587;BME280;66744;49.716;17.158;2023-02-02T16:29:34;99162.50;;;3.87;71.97
77587;BME280;66744;49.716;17.158;2023-02-02T16:32:37;99176.91;;;3.91;72.40
77587;BME280;66744;49.716;17.158;2023-02-02T16:35:41;99181.00;;;3.85;72.35
77587;BME280;66744;49.716;17.158;2023-02-02T16:38:43;99192.00;;;3.76;73.00
77587;BME280;66744;49.716;17.158;2023-02-02T16:41:44;99199.69;;;3.74;72.92
77587;BME280;66744;49.716;17.158;2023-02-02T16:44:49;99215.13;;;3.74;73.67
77587;BME280;66744;49.716;17.158;2023-02-02T16:47:50;99228.06;;;3.80;73.69
77587;BME280;66744;49.716;17.158;2023-02-02T16:51:23;99236.09;;;3.77;73.31
77587;BME280;66744;49.716;17.158;2023-02-02T16:54:22;99254.09;;;3.85;73.39
77587;BME280;66744;49.716;17.158;2023-02-02T16:57:29;99249.31;;;3.94;73.00
77587;BME280;66744;49.716;17.158;2023-02-02T17:00:31;99256.91;;;3.88;73.71
77587;BME280;66744;49.716;17.158;2023-02-02T17:03:35;99272.97;;;3.81;75.89
77587;BME280;66744;49.716;17.158;2023-02-02T17:06:38;99262.00;;;3.62;76.89
77587;BME280;66744;49.716;17.158;2023-02-02T17:09:41;99271.88;;;3.42;78.94
77587;BME280;66744;49.716;17.158;2023-02-02T17:12:47;99274.41;;;3.23;80.50
77587;BME280;66744;49.716;17.158;2023-02-02T17:15:51;99290.31;;;3.13;81.14
77587;BME280;66744;49.716;17.158;2023-02-02T17:18:53;99290.75;;;3.15;81.27
77587;BME280;66744;49.716;17.158;2023-02-02T17:21:55;99301.56;;;3.15;80.42
77587;BME280;66744;49.716;17.158;2023-02-02T17:24:57;99305.63;;;3.09;81.02
77587;BME280;66744;49.716;17.158;2023-02-02T17:27:59;99320.97;;;3.05;81.25
77587;BME280;66744;49.716;17.158;2023-02-02T17:31:04;99314.09;;;2.95;81.63
77587;BME280;66744;49.716;17.158;2023-02-02T17:34:11;99342.03;;;2.87;81.79
77587;BME280;66744;49.716;17.158;2023-02-02T17:37:14;99342.91;;;2.79;82.17
77587;BME280;66744;49.716;17.158;2023-02-02T17:40:16;99350.25;;;2.78;82.03
77587;BME280;66744;49.716;17.158;2023-02-02T17:43:18;99357.47;;;2.74;81.95
77587;BME280;66744;49.716;17.158;2023-02-02T17:46:19;99368.13;;;2.71;82.01
77587;BME280;66744;49.716;17.158;2023-02-02T17:49:20;99368.94;;;2.71;81.22
77587;BME280;66744;49.716;17.158;2023-02-02T17:52:21;99379.41;;;2.73;80.59
77587;BME280;66744;49.716;17.158;2023-02-02T17:55:58;99378.28;;;2.74;79.73
77587;BME280;66744;49.716;17.158;2023-02-02T17:58:53;99381.41;;;2.64;79.02
77587;BME280;66744;49.716;17.158;2023-02-02T18:01:55;99382.44;;;2.71;78.04
77587;BME280;66744;49.716;17.158;2023-02-02T18:04:57;99399.22;;;2.77;75.88
77587;BME280;66744;49.716;17.158;2023-02-02T18:07:58;99416.78;;;2.71;76.26
77587;BME280;66744;49.716;17.158;2023-02-02T18:10:59;99419.56;;;2.62;76.76
77587;BME280;66744;49.716;17.158;2023-02-02T18:14:00;99421.34;;;2.46;77.79
77587;BME280;66744;49.716;17.158;2023-02-02T18:17:03;99426.22;;;2.32;79.09
77587;BME280;66744;49.716;17.158;2023-02-02T18:20:04;99434.53;;;2.27;79.18
77587;BME280;66744;49.716;17.158;2023-02-02T18:23:06;99443.09;;;2.29;79.28
77587;BME280;66744;49.716;17.158;2023-02-02T18:26:08;99444.53;;;2.26;79.05
77587;BME280;66744;49.716;17.158;2023-02-02T18:29:09;99450.09;;;2.30;77.47
77587;BME280;66744;49.716;17.158;2023-02-02T18:32:10;99453.44;;;2.27;77.06
77587;BME280;66744;49.716;17.158;2023-02-02T18:35:11;99458.03;;;2.26;76.13
77587;BME280;66744;49.716;17.158;2023-02-02T18:38:13;99464.69;;;2.29;75.91
77587;BME280;66744;49.716;17.158;2023-02-02T18:41:16;99467.53;;;2.32;74.79
77587;BME280;66744;49.716;17.158;2023-02-02T18:44:17;99478.19;;;2.29;74.11
77587;BME280;66744;49.716;17.158;2023-02-02T18:47:18;99480.75;;;2.25;73.96
77587;BME280;66744;49.716;17.158;2023-02-02T18:50:19;99489.72;;;2.17;74.11